Leona, Kansas
Current Conditions -  °F | °C
As of 9:53 PM on Tuesday 25 Nov 2014 (Local Time) from KFNB Reporting Station
Overcast Overcast  
Wind Chill: 33°   Ceiling: 9000
Heat Index: 40°   Visibility: 10mi
Dew Point: 23°   Wind: 13mph
Humidity: 51%   Direction: 170°S
Pressure: 29.93"   Gusts: NA
Location:  39.8103°N, 95.373°W
Report Text: KFNB 260353Z AUTO 17011KT 10SM SCT075 OVC090 04/M05 A2993 RMK AO2 SLP143 T00441050
Loading
Personal Weather Stations






























Interactive Weather Map New forecast layout! Learn more

10-Day Weather Forecast

Advertisements
Track Severe Weather on mobile